Time,TemperatureF,DewpointF,PressureIn,WindDirection,WindDirectionDegrees,WindSpeedMPH,WindSpeedGustMPH,Humidity,HourlyPrecipIn,Conditions,Clouds,dailyrainin,SolarRadiationWatts/m^2,SoftwareType,DateUTC
2013-01-14 00:11:00,20.0,3.0,-100.00,ENE,76,0.0,0.0,47,0.00,,,-99.99,0.000000,,2013-01-14 08:11:00,
2013-01-14 00:43:00,21.0,3.0,-100.00,ESE,111,0.0,0.0,45,0.00,,,0.00,0.000000,,2013-01-14 08:43:00,
2013-01-14 00:53:00,21.0,3.0,-100.00,ESE,111,0.0,0.0,45,0.00,,,0.00,0.000000,,2013-01-14 08:53:00,
2013-01-14 01:11:00,21.0,3.0,-100.00,ESE,111,0.0,0.0,45,0.00,,,0.00,0.000000,,2013-01-14 09:11:00,
2013-01-14 01:34:00,21.0,4.0,-100.00,ENE,66,0.0,0.0,48,0.00,,,-99.99,0.000000,,2013-01-14 09:34:00,
2013-01-14 01:43:00,21.0,4.0,-100.00,ENE,66,0.0,0.0,48,0.00,,,-99.99,0.000000,,2013-01-14 09:43:00,
2013-01-14 01:53:00,21.0,4.0,-100.00,ENE,66,0.0,0.0,48,0.00,,,-99.99,0.000000,,2013-01-14 09:53:00,
2013-01-14 02:02:00,21.0,4.0,-100.00,ENE,66,0.0,0.0,48,0.00,,,-99.99,0.000000,,2013-01-14 10:02:00,
2013-01-14 02:11:00,21.0,4.0,-100.00,ENE,66,0.0,0.0,48,0.00,,,-99.99,0.000000,,2013-01-14 10:11:00,
2013-01-14 02:43:00,21.0,3.0,-100.00,South,180,0.0,0.0,45,0.00,,,0.00,0.000000,,2013-01-14 10:43:00,
2013-01-14 02:53:00,21.0,3.0,-100.00,South,180,0.0,0.0,45,0.00,,,0.00,0.000000,,2013-01-14 10:53:00,
2013-01-14 03:11:00,21.0,3.0,-100.00,South,180,0.0,0.0,45,0.00,,,0.00,0.000000,,2013-01-14 11:11:00,
2013-01-14 03:43:00,22.0,4.0,-100.00,ENE,61,0.0,0.0,45,0.00,,,0.00,0.000000,,2013-01-14 11:43:00,
2013-01-14 03:53:00,22.0,4.0,-100.00,ENE,61,0.0,0.0,45,0.00,,,0.00,0.000000,,2013-01-14 11:53:00,
2013-01-14 04:02:00,22.0,4.0,-100.00,ENE,61,0.0,0.0,45,0.00,,,0.00,0.000000,,2013-01-14 12:02:00,
2013-01-14 04:12:00,22.0,4.0,-100.00,ENE,61,0.0,0.0,45,0.00,,,0.00,0.000000,,2013-01-14 12:12:00,
2013-01-14 04:33:00,24.0,3.0,-100.00,SSE,150,0.0,2.0,39,0.00,,,0.00,0.000000,,2013-01-14 12:33:00,
2013-01-14 05:43:00,22.0,3.0,-100.00,NE,46,0.0,2.0,44,-99.99,,,0.00,0.000000,,2013-01-14 13:43:00,
2013-01-14 05:53:00,22.0,3.0,-100.00,NE,46,0.0,2.0,44,-99.99,,,0.00,0.000000,,2013-01-14 13:53:00,
2013-01-14 06:02:00,22.0,3.0,-100.00,NE,46,0.0,2.0,44,-99.99,,,0.00,0.000000,,2013-01-14 14:02:00,
2013-01-14 06:12:00,22.0,3.0,-100.00,NE,46,0.0,2.0,44,-99.99,,,0.00,0.000000,,2013-01-14 14:12:00,
2013-01-14 06:33:00,22.0,4.0,-100.00,East,97,0.0,2.0,46,0.00,,,0.00,0.000000,,2013-01-14 14:33:00,
2013-01-14 07:03:00,22.0,4.0,-100.00,East,97,0.0,2.0,46,0.00,,,0.00,0.000000,,2013-01-14 15:03:00,
2013-01-14 07:12:00,22.0,4.0,-100.00,East,97,0.0,2.0,46,0.00,,,0.00,0.000000,,2013-01-14 15:12:00,
2013-01-14 07:34:00,22.0,5.0,-100.00,SE,130,0.0,0.0,48,0.00,,,0.00,0.000000,,2013-01-14 15:34:00,
2013-01-14 07:43:00,22.0,5.0,-100.00,SE,130,0.0,0.0,48,0.00,,,0.00,0.000000,,2013-01-14 15:43:00,
2013-01-14 07:53:00,22.0,5.0,-100.00,SE,130,0.0,0.0,48,0.00,,,0.00,0.000000,,2013-01-14 15:53:00,
2013-01-14 08:02:00,22.0,5.0,-100.00,SE,130,0.0,0.0,48,0.00,,,0.00,0.000000,,2013-01-14 16:02:00,
2013-01-14 08:12:00,22.0,5.0,-100.00,SE,130,0.0,0.0,48,0.00,,,0.00,0.000000,,2013-01-14 16:12:00,
2013-01-14 08:33:00,28.0,5.0,-100.00,SSE,147,0.0,0.0,36,0.00,,,0.00,37.000000,,2013-01-14 16:33:00,
2013-01-14 09:43:00,32.0,7.0,-100.00,SSE,166,0.0,0.0,34,-99.99,,,-99.99,133.000000,,2013-01-14 17:43:00,
2013-01-14 09:53:00,32.0,7.0,-100.00,SSE,166,0.0,0.0,34,-99.99,,,-99.99,133.000000,,2013-01-14 17:53:00,
2013-01-14 10:43:00,39.0,7.0,-100.00,NNE,14,0.0,0.0,26,-99.99,,,0.00,327.000000,,2013-01-14 18:43:00,
2013-01-14 10:53:00,39.0,7.0,-100.00,NNE,14,0.0,0.0,26,-99.99,,,0.00,327.000000,,2013-01-14 18:53:00,
2013-01-14 11:43:00,42.0,9.0,-100.00,North,3,1.0,3.0,25,-99.99,,,0.00,419.000000,,2013-01-14 19:43:00,
2013-01-14 11:53:00,42.0,9.0,-100.00,North,3,1.0,3.0,25,-99.99,,,0.00,419.000000,,2013-01-14 19:53:00,
2013-01-14 12:33:00,43.0,13.0,-100.00,WSW,239,0.0,6.0,29,-99.99,,,0.00,435.000000,,2013-01-14 20:33:00,
2013-01-14 13:43:00,43.0,15.0,-100.00,NW,315,1.0,7.0,32,-99.99,,,0.00,436.000000,,2013-01-14 21:43:00,
2013-01-14 13:53:00,43.0,15.0,-100.00,NW,315,1.0,7.0,32,-99.99,,,0.00,436.000000,,2013-01-14 21:53:00,
2013-01-14 14:43:00,39.0,14.0,-100.00,WSW,243,2.0,14.0,36,-99.99,,,-99.99,349.000000,,2013-01-14 22:43:00,
2013-01-14 14:52:00,39.0,14.0,-100.00,WSW,243,2.0,14.0,36,-99.99,,,-99.99,349.000000,,2013-01-14 22:52:00,
2013-01-14 15:33:00,35.0,14.0,-100.00,SW,228,0.0,11.0,41,-99.99,,,0.00,88.000000,,2013-01-14 23:33:00,
2013-01-14 16:43:00,33.0,16.0,-100.00,SW,219,0.0,6.0,49,0.00,,,0.00,45.000000,,2013-01-15 00:43:00,
2013-01-14 16:53:00,33.0,16.0,-100.00,SW,219,0.0,6.0,49,0.00,,,0.00,45.000000,,2013-01-15 00:53:00,
2013-01-14 17:43:00,29.0,16.0,-100.00,SE,130,0.0,0.0,59,0.00,,,0.00,0.000000,,2013-01-15 01:43:00,
2013-01-14 17:52:00,29.0,16.0,-100.00,SE,130,0.0,0.0,59,0.00,,,0.00,0.000000,,2013-01-15 01:52:00,
2013-01-14 18:42:00,29.0,18.0,-100.00,SE,134,0.0,3.0,64,0.00,,,0.00,1.000000,,2013-01-15 02:42:00,
2013-01-14 18:53:00,29.0,18.0,-100.00,SE,134,0.0,3.0,64,0.00,,,0.00,1.000000,,2013-01-15 02:53:00,
2013-01-14 19:33:00,28.0,21.0,-100.00,SSE,152,0.0,0.0,74,0.00,,,0.00,0.000000,,2013-01-15 03:33:00,
2013-01-14 19:42:00,28.0,21.0,-100.00,SSE,152,0.0,0.0,74,0.00,,,0.00,0.000000,,2013-01-15 03:42:00,
2013-01-14 19:52:00,28.0,21.0,-100.00,SSE,152,0.0,0.0,74,0.00,,,0.00,0.000000,,2013-01-15 03:52:00,
2013-01-14 20:02:00,28.0,21.0,-100.00,SSE,152,0.0,0.0,74,0.00,,,0.00,0.000000,,2013-01-15 04:02:00,
2013-01-14 20:12:00,28.0,21.0,-100.00,SSE,152,0.0,0.0,74,0.00,,,0.00,0.000000,,2013-01-15 04:12:00,
2013-01-14 20:42:00,27.0,23.0,-100.00,North,354,0.0,0.0,83,0.00,,,0.00,0.000000,,2013-01-15 04:42:00,
2013-01-14 20:52:00,27.0,23.0,-100.00,North,354,0.0,0.0,83,0.00,,,0.00,0.000000,,2013-01-15 04:52:00,
2013-01-14 21:03:00,27.0,23.0,-100.00,North,354,0.0,0.0,83,0.00,,,0.00,0.000000,,2013-01-15 05:03:00,
2013-01-14 21:12:00,27.0,23.0,-100.00,North,354,0.0,0.0,83,0.00,,,0.00,0.000000,,2013-01-15 05:12:00,
2013-01-14 21:33:00,28.0,24.0,-100.00,SSE,158,0.0,0.0,83,0.00,,,0.00,0.000000,,2013-01-15 05:33:00,
2013-01-14 21:42:00,28.0,24.0,-100.00,SSE,158,0.0,0.0,83,0.00,,,0.00,0.000000,,2013-01-15 05:42:00,
2013-01-14 21:52:00,28.0,24.0,-100.00,SSE,158,0.0,0.0,83,0.00,,,0.00,0.000000,,2013-01-15 05:52:00,
2013-01-14 22:02:00,28.0,24.0,-100.00,SSE,158,0.0,0.0,83,0.00,,,0.00,0.000000,,2013-01-15 06:02:00,
2013-01-14 22:12:00,28.0,24.0,-100.00,SSE,158,0.0,0.0,83,0.00,,,0.00,0.000000,,2013-01-15 06:12:00,
2013-01-14 22:43:00,28.0,24.0,-100.00,SE,134,0.0,0.0,85,0.00,,,0.00,0.000000,,2013-01-15 06:43:00,
2013-01-14 22:53:00,28.0,24.0,-100.00,SE,134,0.0,0.0,85,0.00,,,0.00,0.000000,,2013-01-15 06:53:00,
2013-01-14 23:02:00,28.0,24.0,-100.00,SE,134,0.0,0.0,85,0.00,,,0.00,0.000000,,2013-01-15 07:02:00,
2013-01-14 23:12:00,28.0,24.0,-100.00,SE,134,0.0,0.0,85,0.00,,,0.00,0.000000,,2013-01-15 07:12:00,
2013-01-14 23:33:00,27.0,23.0,-100.00,SE,144,0.0,0.0,85,0.00,,,0.00,0.000000,,2013-01-15 07:33:00,
2013-01-14 23:43:00,27.0,23.0,-100.00,SE,144,0.0,0.0,85,0.00,,,0.00,0.000000,,2013-01-15 07:43:00,
2013-01-14 23:52:00,27.0,23.0,-100.00,SE,144,0.0,0.0,85,0.00,,,0.00,0.000000,,2013-01-15 07:52:00,